Time;durP1;ratioP1;P1;durP2;ratioP2;P2;SDS_P1;SDS_P2;PMS_P1;PMS_P2;Temp;Humidity;BMP_temperature;BMP_pressure;BME280_temperature;BME280_humidity;BME280_pressure;Samples;Min_cycle;Max_cycle;Signal;HPM_P1;HPM_P2
2023/07/24 00:00:31;;;;;;;4.40;3.63;;;19.00;93.20;;;;;;4978209;28;20658;-75
2023/07/24 00:02:58;;;;;;;6.20;4.70;;;19.10;92.50;;;;;;4979563;28;20673;-75
2023/07/24 00:05:24;;;;;;;5.73;3.53;;;19.20;92.70;;;;;;4980334;28;20653;-76
2023/07/24 00:07:51;;;;;;;4.20;3.77;;;19.20;91.40;;;;;;4981144;28;21218;-75
2023/07/24 00:10:18;;;;;;;5.10;3.30;;;19.20;92.90;;;;;;4981231;28;21023;-75
2023/07/24 00:12:45;;;;;;;6.40;4.60;;;19.10;92.90;;;;;;4977944;28;20638;-75
2023/07/24 00:15:12;;;;;;;5.27;3.73;;;19.00;93.00;;;;;;4979318;28;20641;-75
2023/07/24 00:17:40;;;;;;;5.80;3.70;;;19.10;93.90;;;;;;4979019;28;20628;-75
2023/07/24 00:20:08;;;;;;;7.17;3.93;;;19.10;93.60;;;;;;4981653;28;20630;-75
2023/07/24 00:22:35;;;;;;;6.60;4.60;;;18.80;93.90;;;;;;4980011;28;20657;-75
2023/07/24 00:25:01;;;;;;;6.20;3.90;;;18.80;95.20;;;;;;4978393;28;20632;-75
2023/07/24 00:27:28;;;;;;;5.13;4.07;;;19.10;96.50;;;;;;4970855;28;20669;-75
2023/07/24 00:29:55;;;;;;;6.60;3.80;;;19.10;97.10;;;;;;4979323;28;21202;-75
2023/07/24 00:32:22;;;;;;;4.60;3.70;;;18.70;97.90;;;;;;4980180;28;20757;-75
2023/07/24 00:34:50;;;;;;;7.60;3.80;;;18.40;98.50;;;;;;4981379;28;20629;-75
2023/07/24 00:37:17;;;;;;;5.30;3.80;;;18.40;99.80;;;;;;4982964;28;20968;-76
2023/07/24 00:39:43;;;;;;;5.50;3.57;;;18.10;99.40;;;;;;4975705;28;21211;-75
2023/07/24 00:42:10;;;;;;;5.30;3.70;;;18.20;99.80;;;;;;4980237;28;21222;-75
2023/07/24 00:44:37;;;;;;;5.60;4.43;;;18.30;99.90;;;;;;4981107;28;20617;-75
2023/07/24 00:47:04;;;;;;;4.10;3.57;;;18.40;99.90;;;;;;4978646;28;20683;-75
2023/07/24 00:49:31;;;;;;;4.70;3.57;;;18.50;99.90;;;;;;4982393;28;20622;-75
2023/07/24 00:51:59;;;;;;;5.13;3.43;;;18.40;99.20;;;;;;4979122;28;20661;-75
2023/07/24 00:54:30;;;;;;;6.03;4.00;;;18.30;99.30;;;;;;4980003;28;20631;-75
2023/07/24 00:56:57;;;;;;;8.80;4.93;;;18.10;99.90;;;;;;4978932;28;20672;-75
2023/07/24 00:59:24;;;;;;;7.50;5.33;;;17.90;99.90;;;;;;4977674;28;20636;-75
2023/07/24 01:01:51;;;;;;;7.10;4.30;;;18.00;99.90;;;;;;4978448;28;20662;-75
2023/07/24 01:04:19;;;;;;;4.40;3.27;;;18.40;99.90;;;;;;4981067;28;20645;-76
2023/07/24 01:06:46;;;;;;;5.60;3.30;;;18.40;99.60;;;;;;4984585;28;20662;-75
2023/07/24 01:09:14;;;;;;;5.00;3.43;;;18.50;99.90;;;;;;4980052;28;21004;-75
2023/07/24 01:11:47;;;;;;;5.20;3.20;;;18.60;98.40;;;;;;4972244;28;20659;-75
2023/07/24 01:14:22;;;;;;;4.50;3.33;;;18.50;98.40;;;;;;4977508;28;20630;-75
2023/07/24 01:16:50;;;;;;;4.17;2.97;;;18.40;97.70;;;;;;4979878;28;20653;-76
2023/07/24 01:19:30;;;;;;;5.40;4.80;;;18.50;97.80;;;;;;4976826;28;20729;-76
2023/07/24 01:22:07;;;;;;;4.97;3.50;;;18.60;97.70;;;;;;4981831;28;21162;-75
2023/07/24 01:24:44;;;;;;;6.47;3.83;;;18.70;97.30;;;;;;4977538;28;20630;-76
2023/07/24 01:27:21;;;;;;;5.20;4.30;;;18.60;98.00;;;;;;4975193;28;20653;-75
2023/07/24 01:29:48;;;;;;;7.50;4.60;;;18.70;96.60;;;;;;4977761;28;20644;-75
2023/07/24 01:32:18;;;;;;;5.10;3.50;;;18.60;95.40;;;;;;4978178;28;20662;-75
2023/07/24 01:34:45;;;;;;;4.47;3.60;;;18.60;96.40;;;;;;4978861;28;21210;-75
2023/07/24 01:37:13;;;;;;;5.23;4.50;;;18.60;96.70;;;;;;4978461;28;21249;-76
2023/07/24 01:39:44;;;;;;;4.90;3.87;;;18.60;97.20;;;;;;4979355;28;20744;-75
2023/07/24 01:42:13;;;;;;;4.10;3.70;;;18.50;97.60;;;;;;4978092;28;21002;-76
2023/07/24 01:44:41;;;;;;;4.77;2.97;;;18.50;96.70;;;;;;4979063;28;20650;-75
2023/07/24 01:47:09;;;;;;;4.93;4.17;;;18.40;97.20;;;;;;4981017;28;20697;-75
2023/07/24 01:49:36;;;;;;;4.47;3.40;;;18.40;97.50;;;;;;4972855;28;21182;-76
2023/07/24 01:52:03;;;;;;;4.03;2.90;;;18.40;96.90;;;;;;4979653;28;20685;-75
2023/07/24 01:54:31;;;;;;;8.90;4.23;;;18.50;96.50;;;;;;4977547;28;20989;-75
2023/07/24 01:56:59;;;;;;;3.80;3.03;;;18.60;95.10;;;;;;4975956;28;20690;-75
2023/07/24 01:59:28;;;;;;;4.93;3.77;;;18.50;95.70;;;;;;4975930;28;21220;-75
2023/07/24 02:01:55;;;;;;;6.87;3.63;;;18.50;95.30;;;;;;4977199;28;21251;-75
2023/07/24 02:04:23;;;;;;;5.33;3.60;;;18.60;94.90;;;;;;4977665;28;20670;-75
2023/07/24 02:06:51;;;;;;;5.57;3.30;;;18.60;94.90;;;;;;4981485;28;21349;-76
2023/07/24 02:09:19;;;;;;;5.03;3.87;;;18.60;94.40;;;;;;4976132;28;20638;-75
2023/07/24 02:11:47;;;;;;;3.50;3.10;;;18.60;94.20;;;;;;4978647;28;20725;-76
2023/07/24 02:14:17;;;;;;;4.90;3.73;;;18.60;94.10;;;;;;4976868;28;20626;-75
2023/07/24 02:16:45;;;;;;;6.37;3.80;;;18.50;94.00;;;;;;4980443;28;20753;-75
2023/07/24 02:19:13;;;;;;;6.63;3.80;;;18.50;94.10;;;;;;4975312;28;20661;-75
2023/07/24 02:21:41;;;;;;;6.30;3.80;;;18.70;93.60;;;;;;4978374;28;20676;-75
2023/07/24 02:24:08;;;;;;;5.13;4.20;;;18.60;92.80;;;;;;4979643;28;20665;-75
2023/07/24 02:26:35;;;;;;;4.80;3.77;;;18.50;92.80;;;;;;4980663;28;20688;-76
2023/07/24 02:29:02;;;;;;;3.80;3.40;;;18.40;93.30;;;;;;4976442;28;20644;-75
2023/07/24 02:31:29;;;;;;;6.40;4.30;;;18.40;93.50;;;;;;4976477;28;21148;-75
2023/07/24 02:33:57;;;;;;;5.93;3.67;;;18.40;94.30;;;;;;4981029;28;20665;-76
2023/07/24 02:36:25;;;;;;;5.00;3.90;;;18.40;94.30;;;;;;4978953;28;20653;-75
2023/07/24 02:38:53;;;;;;;4.40;3.77;;;18.40;93.70;;;;;;4978563;28;21031;-75
2023/07/24 02:41:20;;;;;;;5.60;4.07;;;18.40;93.70;;;;;;4976407;28;20655;-75
2023/07/24 02:43:47;;;;;;;4.53;3.27;;;18.40;93.30;;;;;;4977290;28;20670;-76
2023/07/24 02:46:15;;;;;;;4.80;3.83;;;18.40;93.30;;;;;;4980933;28;20760;-76
2023/07/24 02:48:43;;;;;;;5.23;3.60;;;18.30;93.30;;;;;;4979312;28;20634;-74
2023/07/24 02:51:12;;;;;;;6.00;4.10;;;18.30;93.40;;;;;;4971886;28;20650;-75
2023/07/24 02:53:39;;;;;;;5.93;4.23;;;18.30;93.50;;;;;;4980092;28;20638;-76
2023/07/24 02:56:07;;;;;;;7.20;4.27;;;18.20;93.70;;;;;;4973523;28;20757;-76
2023/07/24 02:58:34;;;;;;;5.00;4.23;;;18.20;94.10;;;;;;4976455;28;20626;-75
2023/07/24 03:01:06;;;;;;;5.63;4.80;;;18.10;94.50;;;;;;4975449;28;20769;-75
2023/07/24 03:03:33;;;;;;;8.80;4.30;;;18.00;94.90;;;;;;4981783;28;21088;-75
2023/07/24 03:06:02;;;;;;;6.00;3.93;;;18.10;94.50;;;;;;4977097;28;21075;-75
2023/07/24 03:08:31;;;;;;;5.87;4.00;;;18.00;95.00;;;;;;4978480;28;20728;-75
2023/07/24 03:10:58;;;;;;;4.87;3.93;;;17.90;94.90;;;;;;4975583;28;20748;-75
2023/07/24 03:13:26;;;;;;;5.37;3.77;;;17.90;95.10;;;;;;4977574;28;20637;-76
2023/07/24 03:15:54;;;;;;;5.67;4.17;;;17.90;95.60;;;;;;4982626;28;20710;-75
2023/07/24 03:18:23;;;;;;;5.13;3.43;;;17.90;95.20;;;;;;4980671;28;20664;-75
2023/07/24 03:20:50;;;;;;;6.10;4.10;;;17.90;95.10;;;;;;4980173;28;20656;-75
2023/07/24 03:23:18;;;;;;;5.80;3.63;;;17.90;95.30;;;;;;4980581;28;21287;-75
2023/07/24 03:25:48;;;;;;;4.53;3.80;;;17.90;95.30;;;;;;4980171;28;20658;-75
2023/07/24 03:28:15;;;;;;;6.27;4.83;;;17.80;95.20;;;;;;4979371;28;20637;-75
2023/07/24 03:30:43;;;;;;;7.83;3.97;;;17.80;95.10;;;;;;4978910;28;20654;-75
2023/07/24 03:33:12;;;;;;;4.90;3.30;;;17.80;95.30;;;;;;4980036;28;20990;-76
2023/07/24 03:35:39;;;;;;;6.07;3.80;;;17.80;95.30;;;;;;4979025;28;20650;-75
2023/07/24 03:38:06;;;;;;;9.30;4.40;;;17.60;95.70;;;;;;4977483;28;20634;-75
2023/07/24 03:40:34;;;;;;;5.23;3.70;;;17.50;95.80;;;;;;4978952;28;20664;-75
2023/07/24 03:43:04;;;;;;;5.00;4.37;;;17.50;96.30;;;;;;4979633;28;20668;-76
2023/07/24 03:45:32;;;;;;;5.63;3.10;;;17.40;96.70;;;;;;4981758;28;21069;-75
2023/07/24 03:47:59;;;;;;;5.90;4.53;;;17.20;96.50;;;;;;4978503;28;20630;-75
2023/07/24 03:50:26;;;;;;;5.10;3.87;;;17.30;96.20;;;;;;4980514;28;21205;-75
2023/07/24 03:52:52;;;;;;;4.73;3.50;;;17.30;96.50;;;;;;4980252;28;20744;-75
2023/07/24 03:55:19;;;;;;;6.80;4.53;;;17.30;96.00;;;;;;4981047;28;20680;-75
2023/07/24 03:57:46;;;;;;;7.60;4.37;;;17.30;96.20;;;;;;4979774;28;20621;-75
2023/07/24 04:00:15;;;;;;;4.10;3.20;;;17.40;95.80;;;;;;4980659;28;20636;-75
2023/07/24 04:02:42;;;;;;;7.63;4.23;;;17.50;96.10;;;;;;4978652;28;20614;-76
2023/07/24 04:05:09;;;;;;;6.93;4.47;;;17.60;96.20;;;;;;4982253;28;20633;-75
2023/07/24 04:07:37;;;;;;;5.70;4.80;;;17.70;96.20;;;;;;4974874;28;20638;-75
2023/07/24 04:10:04;;;;;;;7.30;4.27;;;17.80;96.00;;;;;;4981352;28;20637;-75
2023/07/24 04:12:31;;;;;;;5.93;4.50;;;17.80;95.60;;;;;;4977057;28;20982;-75
2023/07/24 04:14:57;;;;;;;4.30;3.60;;;17.80;95.60;;;;;;4974133;28;21273;-75
2023/07/24 04:17:25;;;;;;;5.33;3.70;;;17.90;95.60;;;;;;4987293;28;21035;-76
2023/07/24 04:19:54;;;;;;;7.60;4.20;;;17.80;96.30;;;;;;4978424;28;20638;-76
2023/07/24 04:22:21;;;;;;;5.57;4.20;;;17.70;96.40;;;;;;4979451;28;20639;-76
2023/07/24 04:24:48;;;;;;;4.70;3.80;;;17.70;96.60;;;;;;4979053;28;20684;-74
2023/07/24 04:27:15;;;;;;;7.30;3.63;;;17.80;96.40;;;;;;4980380;28;20655;-74
2023/07/24 04:29:42;;;;;;;6.10;3.90;;;17.90;96.00;;;;;;4976571;28;21094;-76
2023/07/24 04:32:11;;;;;;;7.70;4.33;;;17.90;96.00;;;;;;4979663;28;20672;-76
2023/07/24 04:34:39;;;;;;;4.90;3.60;;;18.00;95.30;;;;;;4979401;28;20641;-76
2023/07/24 04:37:06;;;;;;;4.03;3.47;;;18.00;95.60;;;;;;4979135;28;20664;-76
2023/07/24 04:39:34;;;;;;;4.70;3.70;;;18.00;94.50;;;;;;4977458;28;21089;-76
2023/07/24 04:42:00;;;;;;;6.60;3.90;;;18.00;94.50;;;;;;4977291;28;20993;-76
2023/07/24 04:44:27;;;;;;;5.07;4.07;;;18.00;95.90;;;;;;4975765;28;21242;-76
2023/07/24 04:46:55;;;;;;;7.73;4.10;;;18.00;97.10;;;;;;4977260;28;20661;-75
2023/07/24 04:49:22;;;;;;;6.33;4.67;;;18.00;95.80;;;;;;4979730;28;20759;-75
2023/07/24 04:51:50;;;;;;;5.27;3.80;;;18.10;95.40;;;;;;4978437;28;20653;-76
2023/07/24 04:54:17;;;;;;;6.60;4.40;;;18.10;96.60;;;;;;4971920;28;20642;-75
2023/07/24 04:56:44;;;;;;;5.73;3.97;;;18.10;97.10;;;;;;4976812;28;21329;-76
2023/07/24 04:59:11;;;;;;;5.10;3.77;;;18.20;97.80;;;;;;4974285;28;20627;-74
2023/07/24 05:02:13;;;;;;;7.33;4.27;;;18.20;97.60;;;;;;4980124;28;20660;-78
2023/07/24 05:04:43;;;;;;;6.23;4.00;;;18.20;97.80;;;;;;4972059;28;20662;-78
2023/07/24 05:07:11;;;;;;;11.53;4.83;;;18.20;97.30;;;;;;4979121;28;20663;-77
2023/07/24 05:09:39;;;;;;;4.60;3.73;;;18.30;97.50;;;;;;4980188;28;20634;-78
2023/07/24 05:12:07;;;;;;;6.97;3.63;;;18.30;97.30;;;;;;4978873;28;20748;-78
2023/07/24 05:14:34;;;;;;;6.17;3.93;;;18.30;97.20;;;;;;4977097;28;20673;-78
2023/07/24 05:17:01;;;;;;;4.70;3.90;;;18.40;97.60;;;;;;4977572;28;21114;-78
2023/07/24 05:19:27;;;;;;;6.37;5.33;;;18.50;96.60;;;;;;4972701;28;21054;-77
2023/07/24 05:21:54;;;;;;;5.07;4.50;;;18.60;96.50;;;;;;4975710;28;20995;-74
2023/07/24 05:24:23;;;;;;;5.90;3.90;;;18.60;97.10;;;;;;4980142;28;21031;-74
2023/07/24 05:26:49;;;;;;;8.20;4.57;;;18.60;95.80;;;;;;4980992;28;20661;-75
2023/07/24 05:29:16;;;;;;;6.10;4.20;;;18.70;95.10;;;;;;4976443;28;20631;-77
2023/07/24 05:31:44;;;;;;;8.10;3.83;;;18.80;94.20;;;;;;4975336;28;20668;-77
2023/07/24 05:34:10;;;;;;;5.23;4.33;;;18.80;93.80;;;;;;4980609;28;20741;-77
2023/07/24 05:36:37;;;;;;;9.50;4.83;;;18.80;93.50;;;;;;4974918;28;20658;-76
2023/07/24 05:39:04;;;;;;;5.63;4.53;;;18.90;93.10;;;;;;4976692;28;20638;-77
2023/07/24 05:41:32;;;;;;;6.83;5.00;;;18.90;93.20;;;;;;4977863;28;20664;-76
2023/07/24 05:43:59;;;;;;;5.60;3.97;;;18.90;93.40;;;;;;4981060;28;20657;-76
2023/07/24 05:46:26;;;;;;;6.27;4.57;;;18.90;92.90;;;;;;4974990;28;20658;-75
2023/07/24 05:48:56;;;;;;;8.57;4.43;;;19.00;92.90;;;;;;4976372;28;20645;-73
2023/07/24 05:51:23;;;;;;;5.63;4.33;;;19.00;92.90;;;;;;4977706;28;20771;-75
2023/07/24 05:53:50;;;;;;;7.03;4.27;;;19.00;93.30;;;;;;4977927;28;20637;-78
2023/07/24 05:56:17;;;;;;;7.37;5.27;;;19.10;92.90;;;;;;4979159;28;20666;-80
2023/07/24 05:58:45;;;;;;;6.53;4.17;;;19.10;92.70;;;;;;4977097;28;20641;-78
2023/07/24 06:01:12;;;;;;;6.50;4.50;;;19.10;92.80;;;;;;4976262;28;21191;-79
2023/07/24 06:03:39;;;;;;;9.20;4.03;;;19.00;93.10;;;;;;4980343;28;20734;-78
2023/07/24 06:06:06;;;;;;;7.03;4.57;;;19.00;93.00;;;;;;4980899;28;20649;-78
2023/07/24 06:08:32;;;;;;;7.43;4.80;;;19.00;93.00;;;;;;4978796;28;20630;-80
2023/07/24 06:10:59;;;;;;;10.07;4.83;;;19.10;94.70;;;;;;4976487;28;20757;-80
2023/07/24 06:13:26;;;;;;;5.20;3.80;;;19.10;93.90;;;;;;4976011;28;21287;-75
2023/07/24 06:15:54;;;;;;;6.47;5.07;;;19.20;93.70;;;;;;4973578;28;20915;-73
2023/07/24 06:18:21;;;;;;;4.90;3.80;;;19.20;93.50;;;;;;4974665;28;20634;-75
2023/07/24 06:20:49;;;;;;;6.90;4.30;;;19.30;93.90;;;;;;4980884;28;20751;-75
2023/07/24 06:23:16;;;;;;;5.23;3.80;;;19.30;93.90;;;;;;4979349;28;20638;-76
2023/07/24 06:25:43;;;;;;;7.13;5.30;;;19.30;94.20;;;;;;4973708;28;20693;-75
2023/07/24 06:28:10;;;;;;;7.53;5.00;;;19.30;93.20;;;;;;4975168;28;21186;-74
2023/07/24 06:30:38;;;;;;;8.60;4.87;;;19.30;92.80;;;;;;4974580;28;20666;-74
2023/07/24 06:33:07;;;;;;;4.90;4.40;;;19.30;92.50;;;;;;4975727;28;20632;-73
2023/07/24 06:35:33;;;;;;;6.83;4.60;;;19.30;92.10;;;;;;4973278;28;20658;-76
2023/07/24 06:38:00;;;;;;;5.97;4.40;;;19.40;91.90;;;;;;4981352;28;20644;-74
2023/07/24 06:40:27;;;;;;;5.27;4.00;;;19.40;93.20;;;;;;4981536;28;20688;-73
2023/07/24 06:42:54;;;;;;;8.40;4.80;;;19.50;92.60;;;;;;4967254;28;20980;-74
2023/07/24 06:45:20;;;;;;;7.70;4.23;;;19.60;91.80;;;;;;4975945;28;20777;-74
2023/07/24 06:47:47;;;;;;;8.33;4.87;;;19.60;91.70;;;;;;4974564;28;20640;-75
2023/07/24 06:50:15;;;;;;;6.17;4.73;;;19.80;91.90;;;;;;4981225;28;20653;-76
2023/07/24 06:52:42;;;;;;;4.97;4.07;;;19.80;91.60;;;;;;4975255;28;20644;-76
2023/07/24 06:55:09;;;;;;;5.47;4.10;;;19.90;91.70;;;;;;4982286;28;20669;-75
2023/07/24 06:57:36;;;;;;;7.50;5.33;;;19.90;91.80;;;;;;4984512;28;20637;-75
2023/07/24 07:00:03;;;;;;;4.90;4.40;;;19.90;91.70;;;;;;4975628;28;20986;-73
2023/07/24 07:02:30;;;;;;;6.83;4.17;;;19.80;91.60;;;;;;4983087;28;20664;-73
2023/07/24 07:04:57;;;;;;;6.27;4.47;;;19.90;91.90;;;;;;4971306;28;20660;-74
2023/07/24 07:07:25;;;;;;;5.53;5.03;;;20.00;91.80;;;;;;4973462;28;20657;-74
2023/07/24 07:09:52;;;;;;;6.47;4.93;;;20.00;91.90;;;;;;4976517;28;20636;-74
2023/07/24 07:12:19;;;;;;;7.60;4.73;;;20.00;91.80;;;;;;4986515;28;21172;-73
2023/07/24 07:14:45;;;;;;;5.20;4.00;;;20.20;91.70;;;;;;4980151;28;20659;-74
2023/07/24 07:17:13;;;;;;;6.70;4.83;;;20.20;91.70;;;;;;4981819;28;20700;-72
2023/07/24 07:19:40;;;;;;;6.43;5.10;;;20.30;91.80;;;;;;4977126;28;20626;-72
2023/07/24 07:22:07;;;;;;;6.20;3.93;;;20.30;92.40;;;;;;4986348;28;21259;-73
2023/07/24 07:24:35;;;;;;;7.10;4.97;;;20.20;92.50;;;;;;4981050;28;20669;-73
2023/07/24 07:27:02;;;;;;;5.63;5.03;;;20.30;92.20;;;;;;4980553;28;20662;-74
2023/07/24 07:29:28;;;;;;;8.10;4.37;;;20.40;91.80;;;;;;4980323;28;20721;-74
2023/07/24 07:31:54;;;;;;;5.63;4.23;;;20.40;91.70;;;;;;4985839;28;20761;-74
2023/07/24 07:34:21;;;;;;;7.00;5.20;;;20.40;91.80;;;;;;4974768;28;20202;-73
2023/07/24 07:36:48;;;;;;;5.43;4.30;;;20.50;91.80;;;;;;4979551;28;21329;-73
2023/07/24 07:39:15;;;;;;;8.17;4.30;;;20.40;92.20;;;;;;4985266;28;20761;-73
2023/07/24 07:41:47;;;;;;;5.07;4.63;;;20.40;91.80;;;;;;4984677;28;20771;-73
2023/07/24 07:44:14;;;;;;;5.67;4.20;;;20.50;92.40;;;;;;4981079;28;20698;-73
2023/07/24 07:46:40;;;;;;;5.97;4.70;;;20.60;92.40;;;;;;4982684;28;20685;-73
2023/07/24 07:49:07;;;;;;;6.07;5.00;;;20.70;92.10;;;;;;4976647;28;21254;-73
2023/07/24 07:51:34;;;;;;;6.67;4.40;;;20.70;92.20;;;;;;4971652;28;21208;-73
2023/07/24 07:54:01;;;;;;;7.13;4.90;;;20.80;92.30;;;;;;4985512;28;20665;-73
2023/07/24 07:56:28;;;;;;;7.67;5.00;;;20.80;92.20;;;;;;4975122;28;20666;-73
2023/07/24 07:58:56;;;;;;;5.37;4.17;;;20.80;92.20;;;;;;4975485;28;21057;-73
2023/07/24 08:01:23;;;;;;;8.00;5.03;;;20.80;92.30;;;;;;4982818;28;20675;-73
2023/07/24 08:03:50;;;;;;;7.70;5.10;;;20.70;92.80;;;;;;4978353;28;20628;-73
2023/07/24 08:06:17;;;;;;;7.30;4.87;;;20.70;93.50;;;;;;4976611;28;21014;-73
2023/07/24 08:08:44;;;;;;;6.00;5.40;;;20.70;93.60;;;;;;4977983;28;20776;-72
2023/07/24 08:11:10;;;;;;;5.00;4.33;;;20.70;94.30;;;;;;4980385;28;20664;-73
2023/07/24 08:13:37;;;;;;;5.37;4.57;;;20.60;94.00;;;;;;4978750;28;20624;-73
2023/07/24 08:16:17;;;;;;;6.10;4.07;;;20.50;94.70;;;;;;4979726;28;20762;-73
2023/07/24 08:18:44;;;;;;;5.93;4.47;;;20.40;96.00;;;;;;4978265;28;21101;-72
2023/07/24 08:21:10;;;;;;;9.13;4.83;;;20.30;97.20;;;;;;4977616;28;20752;-72
2023/07/24 08:23:37;;;;;;;7.50;4.90;;;20.10;97.80;;;;;;4979854;28;20638;-73
2023/07/24 08:26:04;;;;;;;8.07;5.13;;;20.10;99.20;;;;;;4979940;28;20683;-73
2023/07/24 08:28:31;;;;;;;6.67;5.87;;;19.90;99.90;;;;;;4979966;28;20691;-73
2023/07/24 08:30:58;;;;;;;5.80;3.63;;;19.70;99.90;;;;;;4979755;28;20658;-74
2023/07/24 08:33:26;;;;;;;6.90;4.60;;;19.60;99.90;;;;;;4976972;28;20721;-72
2023/07/24 08:36:04;;;;;;;7.37;4.50;;;19.50;99.90;;;;;;4972391;28;20768;-72
2023/07/24 08:38:31;;;;;;;5.27;4.10;;;19.50;99.90;;;;;;4971478;28;21264;-72
2023/07/24 08:41:05;;;;;;;4.93;3.77;;;19.70;99.90;;;;;;4976534;28;20756;-71
2023/07/24 08:43:33;;;;;;;4.47;4.07;;;19.70;99.90;;;;;;4979215;28;20991;-71
2023/07/24 08:46:01;;;;;;;4.50;3.63;;;19.70;99.90;;;;;;4980927;28;20718;-72
2023/07/24 08:48:33;;;;;;;7.47;4.20;;;19.80;99.90;;;;;;4981200;28;20628;-74
2023/07/24 08:51:01;;;;;;;6.60;4.23;;;19.80;99.90;;;;;;4975634;28;21148;-74
2023/07/24 08:53:30;;;;;;;5.67;4.27;;;19.70;99.90;;;;;;4976895;28;21611;-74
2023/07/24 08:55:57;;;;;;;4.77;3.67;;;19.70;99.90;;;;;;4977487;28;20676;-76
2023/07/24 08:58:24;;;;;;;6.13;4.17;;;19.80;99.90;;;;;;4979303;28;20627;-75
2023/07/24 09:00:52;;;;;;;4.27;3.80;;;19.80;99.90;;;;;;4979068;28;20656;-76
2023/07/24 09:03:19;;;;;;;4.30;3.90;;;20.00;99.90;;;;;;4981728;28;20648;-78
2023/07/24 09:05:47;;;;;;;7.33;4.17;;;20.00;99.90;;;;;;4979264;28;20688;-75
2023/07/24 09:08:14;;;;;;;6.37;4.93;;;20.00;99.90;;;;;;4979806;28;20666;-75
2023/07/24 09:10:41;;;;;;;7.50;4.67;;;20.00;99.90;;;;;;4980802;28;20657;-75
2023/07/24 09:13:08;;;;;;;6.60;4.73;;;20.10;99.90;;;;;;4976291;28;20662;-75
2023/07/24 09:15:41;;;;;;;3.83;3.40;;;20.30;99.90;;;;;;4981366;28;20660;-73
2023/07/24 09:18:08;;;;;;;3.93;3.30;;;20.30;99.90;;;;;;4976703;28;20622;-75
2023/07/24 09:20:40;;;;;;;6.90;4.17;;;20.30;99.90;;;;;;4975536;28;20766;-74
2023/07/24 09:23:10;;;;;;;5.60;4.20;;;20.30;99.90;;;;;;4976196;28;20672;-75
2023/07/24 09:25:38;;;;;;;5.93;4.87;;;20.30;99.90;;;;;;4980332;28;20681;-74
2023/07/24 09:28:11;;;;;;;7.07;4.47;;;20.40;99.90;;;;;;4980976;28;20692;-74
2023/07/24 09:30:38;;;;;;;4.70;3.47;;;20.40;99.90;;;;;;4978763;28;20669;-73
2023/07/24 09:33:05;;;;;;;4.20;3.10;;;20.50;99.90;;;;;;4978492;28;21151;-74
2023/07/24 09:35:32;;;;;;;3.67;2.87;;;20.50;99.90;;;;;;4979241;28;20665;-73
2023/07/24 09:38:06;;;;;;;4.47;3.67;;;20.50;99.90;;;;;;4977213;28;20646;-74
2023/07/24 09:40:42;;;;;;;5.07;3.00;;;20.50;99.90;;;;;;4972207;28;20670;-73
2023/07/24 09:43:20;;;;;;;4.30;3.57;;;20.40;99.90;;;;;;4976051;28;20640;-72
2023/07/24 09:45:47;;;;;;;3.40;3.10;;;20.30;99.90;;;;;;4977772;28;20764;-71
2023/07/24 09:48:16;;;;;;;5.30;2.80;;;20.20;99.90;;;;;;4982095;28;20675;-72
2023/07/24 09:50:46;;;;;;;6.73;2.77;;;20.30;99.90;;;;;;4980330;28;20756;-73
2023/07/24 09:53:19;;;;;;;4.87;3.10;;;20.30;99.90;;;;;;4979360;28;20629;-73
2023/07/24 09:55:58;;;;;;;4.30;3.10;;;20.30;99.90;;;;;;4974060;28;20684;-73
2023/07/24 09:58:26;;;;;;;3.33;2.83;;;20.20;99.90;;;;;;4973714;28;20622;-73
2023/07/24 10:00:53;;;;;;;5.50;3.23;;;20.20;99.90;;;;;;4975956;28;21002;-73
2023/07/24 10:03:22;;;;;;;6.63;3.73;;;20.20;99.90;;;;;;4973883;28;20628;-75
2023/07/24 10:05:50;;;;;;;3.93;3.30;;;20.20;99.90;;;;;;4977918;28;20724;-77
2023/07/24 10:08:39;;;;;;;3.37;3.07;;;20.20;99.90;;;;;;4977976;28;20622;-73
2023/07/24 10:11:08;;;;;;;5.73;3.40;;;20.10;99.90;;;;;;4977471;28;20667;-76
2023/07/24 10:13:38;;;;;;;4.33;3.03;;;20.10;99.90;;;;;;4974959;28;20808;-77
2023/07/24 10:16:18;;;;;;;4.50;4.10;;;20.10;99.90;;;;;;4978351;28;20658;-78
2023/07/24 10:18:46;;;;;;;7.30;3.20;;;20.10;99.90;;;;;;4979265;28;20629;-74
2023/07/24 10:21:14;;;;;;;3.57;3.27;;;20.10;99.90;;;;;;4977758;28;21010;-74
2023/07/24 10:23:46;;;;;;;3.60;2.80;;;20.10;99.90;;;;;;4977273;28;20636;-76
2023/07/24 10:26:15;;;;;;;6.30;4.10;;;20.00;99.90;;;;;;4981071;28;20692;-76
2023/07/24 10:28:42;;;;;;;5.50;3.70;;;20.10;99.90;;;;;;4979425;28;21009;-77
2023/07/24 10:31:20;;;;;;;3.20;2.90;;;20.00;99.90;;;;;;4982609;28;20753;-78
2023/07/24 10:33:49;;;;;;;6.30;3.43;;;20.00;99.90;;;;;;4974403;28;20744;-79
2023/07/24 10:36:19;;;;;;;9.50;4.23;;;19.90;99.90;;;;;;4976589;28;20752;-75
2023/07/24 10:38:49;;;;;;;4.20;3.70;;;19.90;99.90;;;;;;4979369;28;20626;-76
2023/07/24 10:41:17;;;;;;;5.70;4.27;;;19.80;99.90;;;;;;4978050;28;20649;-77
2023/07/24 10:43:45;;;;;;;6.10;4.37;;;19.80;99.90;;;;;;4981036;28;20737;-74
2023/07/24 10:46:13;;;;;;;5.17;3.53;;;19.90;99.90;;;;;;4984957;28;20672;-75
2023/07/24 10:48:43;;;;;;;4.47;3.80;;;19.70;99.90;;;;;;4975863;28;20736;-75
2023/07/24 10:51:14;;;;;;;4.63;3.00;;;19.70;99.90;;;;;;4979700;28;20642;-76
2023/07/24 10:53:45;;;;;;;5.80;3.60;;;19.50;99.90;;;;;;4976596;28;20634;-75
2023/07/24 10:56:12;;;;;;;5.03;3.60;;;19.50;99.90;;;;;;4985092;28;20683;-76
2023/07/24 10:58:40;;;;;;;3.23;2.93;;;19.40;99.90;;;;;;4979681;28;20631;-75
2023/07/24 11:01:09;;;;;;;6.00;4.10;;;19.20;99.90;;;;;;4978036;28;20803;-77
2023/07/24 11:03:37;;;;;;;5.43;3.23;;;19.10;99.90;;;;;;4978679;28;21035;-77
2023/07/24 11:06:05;;;;;;;5.33;4.20;;;19.10;99.90;;;;;;4976241;28;20669;-76
2023/07/24 11:08:33;;;;;;;4.53;4.07;;;19.10;99.90;;;;;;4979588;28;20729;-72
2023/07/24 11:11:00;;;;;;;3.83;3.00;;;19.10;99.90;;;;;;4978900;28;21019;-74
2023/07/24 11:13:29;;;;;;;4.57;4.17;;;19.00;99.90;;;;;;4980850;28;20662;-74
2023/07/24 11:15:57;;;;;;;4.67;4.23;;;19.00;99.90;;;;;;4976312;28;20752;-75
2023/07/24 11:18:26;;;;;;;7.07;3.70;;;19.00;99.90;;;;;;4979772;28;20621;-74
2023/07/24 11:20:55;;;;;;;4.07;3.67;;;19.00;99.90;;;;;;4978655;28;20666;-73
2023/07/24 11:23:22;;;;;;;4.13;3.63;;;18.80;99.90;;;;;;4982666;28;20654;-73
2023/07/24 11:25:52;;;;;;;6.47;4.27;;;18.80;99.90;;;;;;4974269;28;21265;-73
2023/07/24 11:28:19;;;;;;;7.80;4.47;;;18.80;99.90;;;;;;4977764;28;21220;-73
2023/07/24 11:30:46;;;;;;;6.60;3.70;;;19.00;99.90;;;;;;4977878;28;20760;-74
2023/07/24 11:33:16;;;;;;;3.97;3.27;;;19.00;99.90;;;;;;4980496;28;20630;-74
2023/07/24 11:35:43;;;;;;;3.97;2.80;;;19.00;99.90;;;;;;4976781;28;21222;-74
2023/07/24 11:38:11;;;;;;;6.17;4.60;;;19.10;99.90;;;;;;4978386;28;20637;-73
2023/07/24 11:40:39;;;;;;;4.80;3.47;;;19.20;99.90;;;;;;4980595;28;20649;-72
2023/07/24 11:43:15;;;;;;;4.53;4.13;;;19.30;99.90;;;;;;4982785;28;20642;-73
2023/07/24 11:45:43;;;;;;;5.30;4.30;;;20.10;99.90;;;;;;4981394;28;20764;-73
2023/07/24 11:48:11;;;;;;;6.80;4.73;;;20.80;99.90;;;;;;4977448;28;20625;-74
2023/07/24 11:50:44;;;;;;;6.30;4.10;;;21.30;99.90;;;;;;4979926;28;21007;-73
2023/07/24 11:53:21;;;;;;;4.93;3.23;;;21.20;99.90;;;;;;4973826;28;20626;-73
2023/07/24 11:55:49;;;;;;;4.70;3.57;;;20.90;99.90;;;;;;4976081;28;20676;-73
2023/07/24 11:58:16;;;;;;;5.00;4.10;;;20.70;99.90;;;;;;4978750;28;20629;-74
2023/07/24 12:00:43;;;;;;;3.93;2.90;;;20.40;99.90;;;;;;4979873;28;20668;-74
2023/07/24 12:03:10;;;;;;;2.97;2.67;;;20.00;99.90;;;;;;4974335;28;20732;-74
2023/07/24 12:05:41;;;;;;;3.27;2.93;;;19.80;99.90;;;;;;4972412;28;20769;-74
2023/07/24 12:08:10;;;;;;;11.50;4.00;;;19.70;99.90;;;;;;4977482;28;20704;-74
2023/07/24 12:10:38;;;;;;;5.03;2.77;;;19.60;99.90;;;;;;4978664;28;20662;-73
2023/07/24 12:13:05;;;;;;;4.70;3.70;;;19.70;99.90;;;;;;4978145;28;21083;-73
2023/07/24 12:15:33;;;;;;;5.90;3.87;;;19.90;99.90;;;;;;4976045;28;20653;-73
2023/07/24 12:18:00;;;;;;;5.17;3.43;;;20.10;99.90;;;;;;4974598;28;20630;-74
2023/07/24 12:20:28;;;;;;;4.50;4.10;;;20.30;99.90;;;;;;4972671;28;20752;-74
2023/07/24 12:22:54;;;;;;;5.37;4.60;;;20.40;99.90;;;;;;4980593;28;20736;-75
2023/07/24 12:25:23;;;;;;;4.77;4.10;;;20.40;99.90;;;;;;4983074;28;20650;-75
2023/07/24 12:27:50;;;;;;;6.47;4.20;;;20.70;99.90;;;;;;4978396;28;20725;-75
2023/07/24 12:30:17;;;;;;;4.10;3.70;;;20.80;99.90;;;;;;4979606;28;20633;-74
2023/07/24 12:32:44;;;;;;;5.40;3.80;;;21.00;99.90;;;;;;4972539;28;20631;-74
2023/07/24 12:35:11;;;;;;;5.20;3.70;;;21.10;99.90;;;;;;4980648;28;20626;-75
2023/07/24 12:37:42;;;;;;;4.73;3.63;;;21.20;99.90;;;;;;4978089;28;20646;-75
2023/07/24 12:40:10;;;;;;;5.37;3.43;;;21.20;99.90;;;;;;4979087;28;20627;-75
2023/07/24 12:42:38;;;;;;;4.10;3.70;;;21.10;99.90;;;;;;4978697;28;20726;-73
2023/07/24 12:45:06;;;;;;;3.97;3.53;;;20.90;99.90;;;;;;4977583;28;20623;-72
2023/07/24 12:47:33;;;;;;;3.50;3.20;;;20.70;99.90;;;;;;4976010;28;21103;-72
2023/07/24 12:50:01;;;;;;;5.40;3.40;;;20.90;99.90;;;;;;4974875;28;20633;-72